Time;durP1;ratioP1;P1;durP2;ratioP2;P2;SDS_P1;SDS_P2;PMS_P1;PMS_P2;Temp;Humidity;BMP_temperature;BMP_pressure;BME280_temperature;BME280_humidity;BME280_pressure;Samples;Min_cycle;Max_cycle;Signal;HPM_P1;HPM_P2
2023/07/13 00:00:56;;;;;;;18.65;4.40;;;;;;;18.89;100.00;101416.69;5030165;28;20051;-66
2023/07/13 00:03:21;;;;;;;20.08;4.25;;;;;;;18.91;100.00;101420.13;5026594;28;20116;-64
2023/07/13 00:05:47;;;;;;;26.67;4.60;;;;;;;18.90;100.00;101418.41;5029908;28;20420;-65
2023/07/13 00:08:13;;;;;;;18.73;4.30;;;;;;;18.89;100.00;101418.50;5029946;28;20026;-66
2023/07/13 00:10:40;;;;;;;26.92;4.75;;;;;;;18.92;100.00;101412.97;5030957;28;20052;-65
2023/07/13 00:13:06;;;;;;;24.38;4.55;;;;;;;18.93;100.00;101417.34;5031316;28;20029;-66
2023/07/13 00:15:31;;;;;;;24.55;4.22;;;;;;;18.94;100.00;101409.25;5030833;28;20500;-65
2023/07/13 00:17:57;;;;;;;28.60;4.45;;;;;;;18.94;100.00;101422.59;5030662;28;20029;-64
2023/07/13 00:20:24;;;;;;;24.55;3.95;;;;;;;19.02;100.00;101415.97;5030986;28;20022;-67
2023/07/13 00:22:51;;;;;;;13.10;3.75;;;;;;;19.02;100.00;101411.47;5029827;28;20430;-66
2023/07/13 00:25:17;;;;;;;21.23;4.03;;;;;;;18.98;100.00;101419.75;5030916;28;20033;-62
2023/07/13 00:27:43;;;;;;;22.55;3.60;;;;;;;19.00;100.00;101417.84;5029765;28;20503;-67
2023/07/13 00:30:10;;;;;;;18.30;4.30;;;;;;;19.04;100.00;101430.06;5028194;28;20052;-66
2023/07/13 00:32:35;;;;;;;21.23;4.22;;;;;;;19.06;100.00;101423.69;5029865;28;20029;-65
2023/07/13 00:35:03;;;;;;;20.15;4.15;;;;;;;19.02;100.00;101422.16;5030489;28;20140;-65
2023/07/13 00:37:28;;;;;;;21.40;3.90;;;;;;;19.12;100.00;101422.50;5030839;28;20365;-65
2023/07/13 00:39:54;;;;;;;26.48;4.57;;;;;;;19.07;100.00;101429.88;5030513;28;20032;-66
2023/07/13 00:42:19;;;;;;;18.20;3.65;;;;;;;19.09;100.00;101425.34;5030227;28;20021;-65
2023/07/13 00:45:04;;;;;;;19.42;3.47;;;;;;;19.05;100.00;101421.97;5028522;28;20028;-67
2023/07/13 00:47:29;;;;;;;15.07;3.53;;;;;;;18.99;100.00;101419.66;5026302;28;20025;-67
2023/07/13 00:49:55;;;;;;;19.48;3.72;;;;;;;18.99;100.00;101421.50;5029828;28;20029;-67
2023/07/13 00:52:20;;;;;;;19.25;4.00;;;;;;;18.97;100.00;101418.91;5029016;28;20472;-64
2023/07/13 00:54:46;;;;;;;19.23;3.38;;;;;;;19.00;100.00;101425.88;5029680;28;20357;-64
2023/07/13 00:57:15;;;;;;;18.80;4.05;;;;;;;18.88;100.00;101423.00;5028591;28;20035;-65
2023/07/13 00:59:43;;;;;;;19.20;3.58;;;;;;;18.85;100.00;101425.84;5028542;28;20026;-66
2023/07/13 01:02:09;;;;;;;19.73;3.45;;;;;;;18.85;100.00;101431.19;5028153;28;20026;-68
2023/07/13 01:04:34;;;;;;;20.00;3.72;;;;;;;18.89;100.00;101432.72;5084898;23;20096;-64
2023/07/13 01:07:00;;;;;;;19.70;3.38;;;;;;;18.78;100.00;101433.34;5010924;28;20088;-65
2023/07/13 01:09:26;;;;;;;19.92;3.13;;;;;;;18.74;100.00;101428.28;5009004;28;20025;-67
2023/07/13 01:11:52;;;;;;;21.10;3.85;;;;;;;18.66;100.00;101426.94;5008988;28;20079;-63
2023/07/13 01:14:17;;;;;;;15.60;3.50;;;;;;;18.62;100.00;101430.75;5009985;28;20597;-67
2023/07/13 01:16:47;;;;;;;16.40;3.53;;;;;;;18.59;100.00;101430.03;5008842;28;20025;-68
2023/07/13 01:19:20;;;;;;;17.05;3.25;;;;;;;18.59;100.00;101432.72;5008137;28;20036;-64
2023/07/13 01:21:50;;;;;;;19.27;3.70;;;;;;;18.53;100.00;101431.28;5009709;28;20026;-63
2023/07/13 01:24:15;;;;;;;13.50;3.13;;;;;;;18.54;100.00;101432.97;5009840;28;20032;-66
2023/07/13 01:26:41;;;;;;;18.25;3.75;;;;;;;18.52;100.00;101435.78;5008337;28;20376;-62
2023/07/13 01:29:07;;;;;;;24.52;3.80;;;;;;;18.37;100.00;101434.84;5015890;28;20066;-66
2023/07/13 01:31:33;;;;;;;24.30;3.83;;;;;;;18.39;100.00;101434.75;4989469;28;20076;-67
2023/07/13 01:33:58;;;;;;;20.45;3.42;;;;;;;18.36;100.00;101441.09;4988403;28;20463;-64
2023/07/13 01:36:24;;;;;;;19.05;3.35;;;;;;;18.29;100.00;101451.28;4989744;28;20038;-65
2023/07/13 01:38:50;;;;;;;19.50;3.40;;;;;;;18.33;100.00;101445.78;4988447;28;20061;-64
2023/07/13 01:41:16;;;;;;;14.63;3.47;;;;;;;18.34;100.00;101443.03;4990117;28;20026;-66
2023/07/13 01:43:41;;;;;;;17.70;3.83;;;;;;;18.24;100.00;101453.34;4989425;28;20428;-67
2023/07/13 01:46:07;;;;;;;13.30;2.80;;;;;;;18.27;100.00;101447.84;4989699;28;20030;-66
2023/07/13 01:48:32;;;;;;;13.43;2.53;;;;;;;18.23;100.00;101454.28;4990737;28;20461;-65
2023/07/13 01:50:57;;;;;;;18.73;2.70;;;;;;;18.21;100.00;101452.66;4989756;28;20027;-66
2023/07/13 01:53:23;;;;;;;14.15;3.05;;;;;;;18.18;100.00;101451.88;4988380;28;20030;-66
2023/07/13 01:55:48;;;;;;;16.40;2.85;;;;;;;18.12;100.00;101459.38;4989222;28;20130;-65
2023/07/13 01:58:14;;;;;;;8.70;2.05;;;;;;;18.19;100.00;101458.94;4989367;28;20495;-65
2023/07/13 02:00:39;;;;;;;12.75;2.58;;;;;;;18.18;100.00;101465.22;5007281;28;20026;-66
2023/07/13 02:03:04;;;;;;;12.35;2.65;;;;;;;18.08;100.00;101458.66;5028100;28;20460;-64
2023/07/13 02:05:30;;;;;;;12.95;1.92;;;;;;;18.14;100.00;101466.34;5028376;28;20135;-65
2023/07/13 02:07:55;;;;;;;15.25;2.40;;;;;;;18.03;100.00;101468.72;5010219;28;20137;-66
2023/07/13 02:10:21;;;;;;;13.90;2.67;;;;;;;18.05;100.00;101465.03;4989820;28;20058;-67
2023/07/13 02:12:49;;;;;;;13.43;1.70;;;;;;;18.04;100.00;101467.78;4988347;28;20084;-66
2023/07/13 02:15:14;;;;;;;6.00;1.85;;;;;;;18.06;100.00;101473.88;4988685;28;20069;-65
2023/07/13 02:17:39;;;;;;;11.00;1.75;;;;;;;18.05;100.00;101467.69;4988518;28;20062;-63
2023/07/13 02:20:06;;;;;;;9.10;1.63;;;;;;;18.00;100.00;101461.75;4990875;28;20445;-68
2023/07/13 02:22:31;;;;;;;6.10;1.33;;;;;;;17.96;100.00;101462.00;5008699;28;20375;-66
2023/07/13 02:24:57;;;;;;;7.65;1.92;;;;;;;17.94;100.00;101462.94;5009098;28;20026;-64
2023/07/13 02:27:22;;;;;;;4.82;1.48;;;;;;;17.97;100.00;101466.41;5004728;28;20407;-65
2023/07/13 02:29:48;;;;;;;11.00;2.20;;;;;;;17.99;100.00;101461.81;4991884;28;20041;-67
2023/07/13 02:32:13;;;;;;;4.57;1.50;;;;;;;17.94;100.00;101456.75;4991934;28;20396;-65
2023/07/13 02:34:40;;;;;;;10.95;1.83;;;;;;;17.89;100.00;101456.16;4991520;28;20019;-67
2023/07/13 02:37:06;;;;;;;6.32;1.63;;;;;;;17.90;100.00;101464.06;4993061;28;20041;-65
2023/07/13 02:39:32;;;;;;;8.52;2.05;;;;;;;17.93;100.00;101458.56;4993066;28;20034;-65
2023/07/13 02:41:59;;;;;;;8.50;2.10;;;;;;;17.90;100.00;101465.88;5008765;28;20053;-64
2023/07/13 02:44:24;;;;;;;14.95;1.90;;;;;;;17.89;100.00;101458.81;5013140;28;20038;-65
2023/07/13 02:46:50;;;;;;;4.68;1.73;;;;;;;17.85;100.00;101468.78;5012367;28;20029;-66
2023/07/13 02:49:15;;;;;;;4.57;1.75;;;;;;;17.88;100.00;101463.28;5010117;28;20021;-65
2023/07/13 02:51:41;;;;;;;13.40;2.05;;;;;;;17.84;100.00;101468.88;4997303;28;20809;-64
2023/07/13 02:54:08;;;;;;;7.22;2.03;;;;;;;17.83;100.00;101464.47;5007269;28;20089;-64
2023/07/13 02:56:34;;;;;;;10.77;2.10;;;;;;;17.76;100.00;101462.16;4991570;28;20034;-65
2023/07/13 02:58:59;;;;;;;10.77;2.15;;;;;;;17.77;100.00;101460.34;4994090;28;20041;-65
2023/07/13 03:01:25;;;;;;;11.98;2.55;;;;;;;17.72;100.00;101462.41;5012175;28;20041;-66
2023/07/13 03:03:51;;;;;;;9.55;2.10;;;;;;;17.81;100.00;101467.22;5011916;28;20045;-66
2023/07/13 03:06:17;;;;;;;11.38;2.30;;;;;;;17.79;100.00;101469.13;5010804;28;20120;-65
2023/07/13 03:08:43;;;;;;;13.30;2.75;;;;;;;17.83;100.00;101470.69;5012334;28;20432;-64
2023/07/13 03:11:11;;;;;;;15.38;2.78;;;;;;;17.78;100.00;101467.41;4995076;28;20026;-63
2023/07/13 03:13:38;;;;;;;10.65;2.85;;;;;;;17.81;100.00;101473.44;4991558;28;20026;-64
2023/07/13 03:16:04;;;;;;;19.38;3.15;;;;;;;17.78;100.00;101470.06;4991027;28;20473;-64
2023/07/13 03:18:29;;;;;;;13.85;2.67;;;;;;;17.79;100.00;101469.13;5006297;28;20034;-64
2023/07/13 03:20:55;;;;;;;11.13;3.08;;;;;;;17.75;100.00;101475.56;4992705;28;20368;-67
2023/07/13 03:23:21;;;;;;;15.90;2.47;;;;;;;17.79;100.00;101469.13;4992841;28;20446;-64
2023/07/13 03:25:47;;;;;;;14.07;3.00;;;;;;;17.80;100.00;101461.06;4992305;28;20019;-65
2023/07/13 03:28:13;;;;;;;19.33;3.35;;;;;;;17.75;100.00;101465.78;5004180;28;20392;-62
2023/07/13 03:30:39;;;;;;;15.85;3.20;;;;;;;17.74;100.00;101466.72;5011223;28;20373;-64
2023/07/13 03:33:04;;;;;;;14.88;3.65;;;;;;;17.76;100.00;101464.81;4997238;28;20052;-65
2023/07/13 03:35:30;;;;;;;15.23;3.55;;;;;;;17.79;100.00;101471.81;4991346;28;20542;-63
2023/07/13 03:37:56;;;;;;;16.25;3.88;;;;;;;17.77;100.00;101476.34;4991418;28;20389;-65
2023/07/13 03:40:22;;;;;;;17.23;3.50;;;;;;;17.78;100.00;101472.72;4990658;28;20492;-66
2023/07/13 03:42:47;;;;;;;22.88;4.15;;;;;;;17.85;100.00;101476.78;4991830;28;20030;-63
2023/07/13 03:45:13;;;;;;;19.55;3.70;;;;;;;17.86;100.00;101481.19;5009173;28;20026;-64
2023/07/13 03:47:38;;;;;;;14.05;3.72;;;;;;;17.80;100.00;101477.06;5010556;28;20040;-66
2023/07/13 03:50:04;;;;;;;19.83;4.10;;;;;;;17.76;100.00;101475.47;5011292;28;20026;-62
2023/07/13 03:52:30;;;;;;;20.75;4.13;;;;;;;17.85;100.00;101484.78;5011051;28;20022;-64
2023/07/13 03:54:55;;;;;;;22.63;3.65;;;;;;;17.96;100.00;101480.66;5000570;28;20031;-64
2023/07/13 03:57:21;;;;;;;25.40;3.95;;;;;;;18.01;100.00;101483.94;4994075;28;20038;-65
2023/07/13 03:59:46;;;;;;;19.25;4.20;;;;;;;18.04;100.00;101489.09;5010243;28;20106;-64
2023/07/13 04:02:11;;;;;;;17.58;3.85;;;;;;;18.06;100.00;101484.53;5009741;28;20022;-64
2023/07/13 04:04:39;;;;;;;17.35;4.18;;;;;;;18.05;100.00;101494.34;5010229;28;20046;-65
2023/07/13 04:07:05;;;;;;;18.63;4.10;;;;;;;18.12;100.00;101496.72;5011159;28;20523;-66
2023/07/13 04:09:30;;;;;;;26.85;4.40;;;;;;;18.17;100.00;101490.19;5004211;28;20034;-64
2023/07/13 04:11:56;;;;;;;17.85;3.80;;;;;;;18.29;100.00;101493.09;5008460;28;20087;-66
2023/07/13 04:14:21;;;;;;;14.80;3.42;;;;;;;18.38;100.00;101492.59;5010878;28;20453;-65
2023/07/13 04:16:47;;;;;;;18.58;3.60;;;;;;;18.47;100.00;101491.19;5009086;28;20033;-62
2023/07/13 04:19:12;;;;;;;17.42;3.63;;;;;;;18.54;100.00;101494.34;4998344;28;20030;-65
2023/07/13 04:21:38;;;;;;;18.98;3.63;;;;;;;18.67;100.00;101492.69;5009226;28;20542;-66
2023/07/13 04:24:04;;;;;;;14.90;3.45;;;;;;;18.71;100.00;101496.06;5010816;28;20465;-62
2023/07/13 04:26:30;;;;;;;23.15;4.10;;;;;;;18.79;100.00;101498.28;5006171;28;20026;-67
2023/07/13 04:28:56;;;;;;;22.45;3.80;;;;;;;18.84;100.00;101500.69;5001803;28;20137;-65
2023/07/13 04:31:21;;;;;;;15.13;3.45;;;;;;;18.89;100.00;101504.81;5009901;28;20030;-65
2023/07/13 04:33:47;;;;;;;21.88;3.92;;;;;;;18.98;100.00;101499.88;5020884;28;20028;-68
2023/07/13 04:36:14;;;;;;;17.35;3.30;;;;;;;19.01;100.00;101507.69;5026564;28;20026;-67
2023/07/13 04:38:40;;;;;;;16.83;3.05;;;;;;;19.07;100.00;101504.66;5020862;28;20025;-68
2023/07/13 04:41:08;;;;;;;14.40;3.30;;;;;;;19.12;100.00;101513.31;5013137;28;20028;-66
2023/07/13 04:43:33;;;;;;;15.73;3.03;;;;;;;19.19;100.00;101508.44;5001907;28;20031;-66
2023/07/13 04:46:11;;;;;;;13.02;2.83;;;;;;;19.32;100.00;101512.09;5005368;28;20096;-67
2023/07/13 04:48:36;;;;;;;15.75;3.58;;;;;;;19.38;100.00;101513.53;5010095;28;20029;-69
2023/07/13 04:51:02;;;;;;;18.50;3.47;;;;;;;19.30;100.00;101515.81;5023090;28;20026;-64
2023/07/13 04:53:28;;;;;;;22.38;4.25;;;;;;;19.30;100.00;101518.50;5009620;28;20021;-67
2023/07/13 04:55:54;;;;;;;19.08;3.97;;;;;;;19.31;100.00;101522.88;4998251;28;20408;-66
2023/07/13 04:58:19;;;;;;;18.45;4.07;;;;;;;19.34;100.00;101528.03;5010139;28;20026;-67
2023/07/13 05:00:45;;;;;;;12.02;3.30;;;;;;;19.41;100.00;101526.72;5007200;28;20546;-67
2023/07/13 05:03:10;;;;;;;17.02;4.40;;;;;;;19.43;100.00;101522.16;5008969;28;20037;-70
2023/07/13 05:05:35;;;;;;;14.73;3.70;;;;;;;19.43;100.00;101524.81;5009313;28;20046;-65
2023/07/13 05:08:01;;;;;;;18.65;3.92;;;;;;;19.45;100.00;101525.56;5009617;28;20030;-66
2023/07/13 05:10:27;;;;;;;14.70;4.00;;;;;;;19.44;100.00;101522.97;5010827;28;20499;-66
2023/07/13 05:12:52;;;;;;;19.20;4.25;;;;;;;19.59;100.00;101518.50;5009860;28;20025;-66
2023/07/13 05:15:21;;;;;;;20.23;4.18;;;;;;;19.77;100.00;101529.88;5010159;28;20891;-68
2023/07/13 05:17:47;;;;;;;20.45;3.95;;;;;;;19.97;100.00;101535.81;5008894;28;20685;-68
2023/07/13 05:20:13;;;;;;;16.58;3.83;;;;;;;20.16;100.00;101532.84;5009132;28;20058;-67
2023/07/13 05:22:38;;;;;;;18.83;3.72;;;;;;;20.23;100.00;101533.34;4999040;28;20039;-67
2023/07/13 05:25:05;;;;;;;14.98;3.30;;;;;;;20.35;100.00;101538.84;5009390;28;20105;-68
2023/07/13 05:27:31;;;;;;;12.60;3.33;;;;;;;20.38;100.00;101538.66;5008675;28;20030;-68
2023/07/13 05:29:56;;;;;;;10.48;3.10;;;;;;;20.35;100.00;101545.06;5009379;28;20076;-68
2023/07/13 05:32:22;;;;;;;6.72;2.45;;;;;;;20.51;100.00;101541.38;5009544;28;20032;-68
2023/07/13 05:34:47;;;;;;;14.13;2.80;;;;;;;20.31;100.00;101541.72;5008535;28;20030;-69
2023/07/13 05:37:13;;;;;;;14.07;2.88;;;;;;;20.48;100.00;101537.09;5009861;28;20030;-69
2023/07/13 05:39:38;;;;;;;13.68;3.47;;;;;;;20.71;100.00;101540.91;5009648;28;20026;-69
2023/07/13 05:42:04;;;;;;;11.38;2.55;;;;;;;20.73;100.00;101556.00;5009833;28;20026;-69
2023/07/13 05:44:30;;;;;;;9.35;2.88;;;;;;;20.76;100.00;101545.09;4994023;28;20117;-66
2023/07/13 05:46:56;;;;;;;13.55;2.85;;;;;;;20.74;100.00;101542.53;4989404;28;20030;-69
2023/07/13 05:49:22;;;;;;;11.30;2.97;;;;;;;20.77;100.00;101549.53;4989298;28;20058;-72
2023/07/13 05:51:48;;;;;;;11.38;2.78;;;;;;;20.81;100.00;101551.03;4989907;28;20077;-71
2023/07/13 05:54:13;;;;;;;11.00;2.78;;;;;;;21.02;100.00;101561.28;4989793;28;20026;-65
2023/07/13 05:56:38;;;;;;;8.98;2.53;;;;;;;21.01;100.00;101556.91;4989403;28;20035;-70
2023/07/13 05:59:04;;;;;;;10.38;2.33;;;;;;;21.03;100.00;101565.69;4990046;28;20027;-69
2023/07/13 06:01:30;;;;;;;9.85;2.70;;;;;;;21.05;100.00;101566.44;5008922;28;20022;-68
2023/07/13 06:03:56;;;;;;;13.15;2.85;;;;;;;20.91;100.00;101567.34;5010773;28;20054;-67
2023/07/13 06:06:21;;;;;;;11.80;2.60;;;;;;;21.08;100.00;101560.88;5004724;28;20030;-69
2023/07/13 06:08:47;;;;;;;9.50;2.63;;;;;;;21.12;100.00;101565.06;4993108;28;20408;-69
2023/07/13 06:11:16;;;;;;;6.22;2.38;;;;;;;21.08;100.00;101571.59;4992594;28;20093;-66
2023/07/13 06:13:41;;;;;;;11.57;2.38;;;;;;;21.02;100.00;101569.34;5007510;28;20031;-69
2023/07/13 06:16:08;;;;;;;7.40;2.65;;;;;;;20.97;100.00;101583.03;4992770;28;20033;-67
2023/07/13 06:18:34;;;;;;;9.35;3.10;;;;;;;20.92;100.00;101586.00;4993662;28;20018;-68
2023/07/13 06:20:59;;;;;;;8.25;2.70;;;;;;;20.73;100.00;101585.47;5002593;28;20048;-65
2023/07/13 06:23:25;;;;;;;14.05;3.50;;;;;;;20.61;100.00;101593.34;5012294;28;20484;-68
2023/07/13 06:25:51;;;;;;;14.50;3.65;;;;;;;20.42;100.00;101594.56;5011426;28;20348;-65
2023/07/13 06:28:16;;;;;;;12.27;2.63;;;;;;;20.28;100.00;101597.22;5009761;28;20448;-68
2023/07/13 06:30:42;;;;;;;7.35;2.78;;;;;;;20.00;100.00;101599.81;4996286;28;20463;-67
2023/07/13 06:33:07;;;;;;;11.35;2.47;;;;;;;19.82;100.00;101601.78;5006010;28;20041;-67
2023/07/13 06:35:33;;;;;;;7.93;2.10;;;;;;;19.67;100.00;101606.25;5007287;28;20037;-67
2023/07/13 06:37:59;;;;;;;9.32;2.53;;;;;;;19.77;100.00;101609.22;5011404;28;20026;-66
2023/07/13 06:40:24;;;;;;;8.25;2.55;;;;;;;19.69;100.00;101607.88;5011581;28;20496;-67
2023/07/13 06:42:50;;;;;;;4.75;2.17;;;;;;;19.86;100.00;101602.47;5010857;28;20117;-65
2023/07/13 06:45:15;;;;;;;4.90;1.90;;;;;;;19.93;100.00;101609.16;5012082;28;20026;-68
2023/07/13 06:47:41;;;;;;;7.30;2.50;;;;;;;20.03;100.00;101615.69;5011558;28;20037;-70
2023/07/13 06:50:07;;;;;;;5.72;2.15;;;;;;;20.05;100.00;101612.94;5012309;28;20447;-66
2023/07/13 06:52:32;;;;;;;9.23;2.50;;;;;;;20.01;100.00;101611.38;5007732;28;20022;-68
2023/07/13 06:54:57;;;;;;;9.07;2.30;;;;;;;20.10;100.00;101612.66;4992557;28;20536;-68
2023/07/13 06:57:23;;;;;;;5.32;2.25;;;;;;;20.00;100.00;101615.84;4993781;28;20068;-69
2023/07/13 06:59:48;;;;;;;6.75;2.65;;;;;;;20.24;100.00;101622.47;5009941;28;20030;-68
2023/07/13 07:02:14;;;;;;;7.05;2.40;;;;;;;20.40;100.00;101615.19;5010173;28;20109;-68
2023/07/13 07:04:39;;;;;;;7.57;2.72;;;;;;;20.73;100.00;101620.28;5011158;28;20480;-69
2023/07/13 07:07:04;;;;;;;11.13;2.85;;;;;;;21.09;100.00;101618.84;5011273;28;20065;-69
2023/07/13 07:09:31;;;;;;;5.55;2.03;;;;;;;21.48;100.00;101612.72;5011312;28;20026;-68
2023/07/13 07:11:56;;;;;;;5.55;2.50;;;;;;;21.53;100.00;101610.59;5007666;28;20030;-68
2023/07/13 07:14:22;;;;;;;4.65;2.30;;;;;;;21.75;100.00;101610.00;4992240;28;20122;-67
2023/07/13 07:16:47;;;;;;;6.80;1.92;;;;;;;21.86;100.00;101613.75;4988712;28;20034;-70
2023/07/13 07:19:13;;;;;;;6.50;2.10;;;;;;;21.98;100.00;101614.72;4990463;28;20041;-69
2023/07/13 07:21:38;;;;;;;7.85;2.47;;;;;;;22.04;100.00;101608.94;5018124;28;20048;-67
2023/07/13 07:24:04;;;;;;;7.15;2.70;;;;;;;21.99;100.00;101611.06;5010826;28;20048;-69
2023/07/13 07:26:30;;;;;;;12.18;2.58;;;;;;;21.75;100.00;101622.50;5007769;28;20034;-67
2023/07/13 07:28:56;;;;;;;8.52;2.78;;;;;;;21.51;100.00;101623.25;5011041;28;20021;-68
2023/07/13 07:31:21;;;;;;;4.75;2.17;;;;;;;21.39;100.00;101620.44;5009689;28;20109;-69
2023/07/13 07:33:47;;;;;;;9.15;2.40;;;;;;;21.20;100.00;101640.44;5009714;28;20113;-65
2023/07/13 07:36:12;;;;;;;8.82;2.40;;;;;;;21.25;100.00;101641.97;4996715;28;20041;-67
2023/07/13 07:38:38;;;;;;;9.85;2.78;;;;;;;21.29;100.00;101630.06;5004444;28;20052;-67
2023/07/13 07:41:04;;;;;;;4.47;2.20;;;;;;;21.53;100.00;101626.69;5008526;28;20018;-68
2023/07/13 07:43:30;;;;;;;9.93;2.60;;;;;;;21.82;100.00;101634.56;5009201;28;20481;-65
2023/07/13 07:45:55;;;;;;;9.93;2.65;;;;;;;22.10;100.00;101629.97;5010140;28;20113;-71
2023/07/13 07:48:21;;;;;;;10.23;2.45;;;;;;;22.39;99.88;101635.06;5010461;28;20025;-69
2023/07/13 07:50:46;;;;;;;11.82;2.55;;;;;;;22.50;98.87;101630.75;5010654;28;20033;-71
2023/07/13 07:53:12;;;;;;;8.85;2.75;;;;;;;22.17;99.96;101631.25;5010594;28;20028;-70
2023/07/13 07:55:38;;;;;;;7.38;2.40;;;;;;;22.07;99.28;101636.38;5010716;28;20018;-68
2023/07/13 07:58:04;;;;;;;12.43;3.20;;;;;;;22.21;99.41;101637.22;5009500;28;20017;-67
2023/07/13 08:00:31;;;;;;;8.18;2.40;;;;;;;22.18;99.61;101637.44;4994584;28;20030;-70
2023/07/13 08:02:57;;;;;;;7.60;2.65;;;;;;;21.84;100.00;101640.69;4997061;28;20114;-76
2023/07/13 08:05:22;;;;;;;7.88;2.67;;;;;;;21.90;99.34;101645.63;5005968;28;20134;-68
2023/07/13 08:07:48;;;;;;;8.82;2.67;;;;;;;21.98;99.67;101644.25;5009909;28;20464;-72
2023/07/13 08:10:13;;;;;;;8.27;2.67;;;;;;;22.07;99.27;101640.91;5010664;28;20021;-68
2023/07/13 08:12:40;;;;;;;7.80;2.58;;;;;;;22.28;99.40;101643.91;5009943;28;20041;-72
2023/07/13 08:15:08;;;;;;;11.43;3.00;;;;;;;22.38;99.70;101641.41;5010539;28;20032;-72
2023/07/13 08:17:33;;;;;;;7.30;2.38;;;;;;;22.33;98.90;101651.59;5008279;28;20041;-76
2023/07/13 08:19:59;;;;;;;11.50;3.05;;;;;;;22.32;97.17;101648.09;4995759;28;20076;-69
2023/07/13 08:22:24;;;;;;;11.10;2.45;;;;;;;22.28;98.40;101648.41;5010283;28;20025;-72
2023/07/13 08:24:55;;;;;;;10.18;2.80;;;;;;;22.35;96.79;101649.69;4992457;28;20045;-77
2023/07/13 08:27:24;;;;;;;8.50;2.40;;;;;;;22.45;93.94;101649.88;4992711;28;20050;-70
2023/07/13 08:29:50;;;;;;;11.30;2.50;;;;;;;22.61;92.18;101641.63;4991168;28;20216;-64
2023/07/13 08:32:15;;;;;;;13.18;2.47;;;;;;;23.00;92.44;101643.28;4989242;28;20046;-70
2023/07/13 08:34:41;;;;;;;7.55;2.55;;;;;;;23.07;91.04;101644.53;4991211;28;20042;-72
2023/07/13 08:37:06;;;;;;;6.30;2.03;;;;;;;23.05;92.72;101646.47;4991388;28;20445;-75
2023/07/13 08:39:33;;;;;;;7.95;2.50;;;;;;;22.64;92.29;101652.13;5000596;28;20025;-72
2023/07/13 08:42:19;;;;;;;6.82;2.50;;;;;;;22.32;93.68;101649.91;5011409;28;20065;-67
2023/07/13 08:45:03;;;;;;;9.05;2.35;;;;;;;21.94;98.19;101657.88;5010697;28;20026;-73
2023/07/13 08:47:32;;;;;;;8.55;2.20;;;;;;;21.55;100.00;101662.31;5010063;28;20028;-66
2023/07/13 08:49:57;;;;;;;10.88;2.50;;;;;;;21.14;100.00;101664.97;5001546;28;20424;-71
2023/07/13 08:52:34;;;;;;;5.40;2.50;;;;;;;21.10;100.00;101657.25;4989833;28;20085;-73
2023/07/13 08:55:04;;;;;;;10.20;2.60;;;;;;;20.95;100.00;101673.38;5001759;28;20476;-71
2023/07/13 08:57:33;;;;;;;5.93;2.47;;;;;;;20.89;100.00;101682.59;4995000;28;20022;-66
2023/07/13 08:59:58;;;;;;;;;;;;;;;20.95;100.00;101665.34;4996432;28;20034;-66
2023/07/13 09:02:46;;;;;;;7.35;2.72;;;;;;;20.83;100.00;101666.94;5016194;28;19980;-70
2023/07/13 09:05:16;;;;;;;9.88;2.42;;;;;;;20.90;100.00;101672.78;4999030;28;20092;-71
2023/07/13 09:08:00;;;;;;;12.80;3.42;;;;;;;20.86;100.00;101666.72;5005964;28;20041;-66
2023/07/13 09:10:28;;;;;;;12.73;3.75;;;;;;;21.00;100.00;101673.03;5009784;28;20132;-72
2023/07/13 09:13:10;;;;;;;11.25;2.60;;;;;;;21.33;100.00;101674.47;5009175;28;20036;-71
2023/07/13 09:15:39;;;;;;;6.82;2.53;;;;;;;21.94;100.00;101667.72;5007587;28;20087;-71
2023/07/13 09:18:30;;;;;;;8.15;2.88;;;;;;;22.33;98.35;101663.22;5009044;28;20033;-72
2023/07/13 09:21:11;;;;;;;7.55;2.25;;;;;;;22.42;98.42;101667.06;5007562;28;20034;-68
2023/07/13 09:23:36;;;;;;;9.90;2.63;;;;;;;22.44;96.52;101675.00;4991149;28;20018;-72
2023/07/13 09:26:13;;;;;;;8.40;2.75;;;;;;;22.35;94.69;101676.53;5010619;28;20026;-73
2023/07/13 09:28:42;;;;;;;11.18;2.90;;;;;;;22.09;94.15;101671.16;5010169;28;20476;-74
2023/07/13 09:31:15;;;;;;;7.75;2.67;;;;;;;22.09;95.20;101676.53;5009845;28;20384;-72
2023/07/13 09:33:41;;;;;;;9.07;2.60;;;;;;;22.02;95.20;101680.63;5009243;28;20022;-71
2023/07/13 09:36:24;;;;;;;8.52;2.50;;;;;;;22.08;95.55;101688.25;5009223;28;20040;-70
2023/07/13 09:38:58;;;;;;;6.82;2.20;;;;;;;22.24;94.87;101679.13;5005633;28;20037;-70
2023/07/13 09:41:33;;;;;;;7.93;2.42;;;;;;;22.57;95.05;101697.34;5010119;28;20025;-73
2023/07/13 09:44:09;;;;;;;8.65;2.60;;;;;;;22.75;94.32;101696.16;5005745;28;20472;-64
2023/07/13 09:46:34;;;;;;;9.38;2.42;;;;;;;22.97;93.38;101698.97;4999743;28;20053;-72
2023/07/13 09:49:00;;;;;;;12.73;2.40;;;;;;;23.01;92.65;101701.44;4998281;28;20404;-73
2023/07/13 09:51:25;;;;;;;4.97;2.08;;;;;;;23.11;90.55;101697.09;5008075;28;20025;-69
2023/07/13 09:53:51;;;;;;;3.78;1.85;;;;;;;22.85;92.29;101702.56;5000591;28;20026;-73
2023/07/13 09:56:21;;;;;;;6.95;1.95;;;;;;;22.96;93.16;101704.47;5009376;28;20033;-74
2023/07/13 09:58:46;;;;;;;12.50;2.15;;;;;;;22.98;93.23;101705.22;5005298;28;20029;-74
2023/07/13 10:01:12;;;;;;;8.30;2.45;;;;;;;22.95;94.36;101705.44;5008542;28;20030;-71
2023/07/13 10:03:38;;;;;;;6.40;2.20;;;;;;;22.82;95.43;101718.91;5007614;28;20100;-71
2023/07/13 10:06:16;;;;;;;7.38;2.42;;;;;;;22.65;95.90;101712.94;5007220;28;20124;-70
2023/07/13 10:08:41;;;;;;;5.35;2.65;;;;;;;22.91;96.19;101714.69;5007105;28;21311;-70
2023/07/13 10:11:24;;;;;;;9.25;2.90;;;;;;;23.02;96.06;101722.81;5005136;28;20117;-73
2023/07/13 10:13:55;;;;;;;10.32;2.80;;;;;;;23.36;94.33;101716.78;5008345;28;20555;-72
2023/07/13 10:16:21;;;;;;;8.98;2.53;;;;;;;23.42;92.65;101713.66;5007763;28;20145;-71
2023/07/13 10:18:49;;;;;;;7.25;2.85;;;;;;;23.13;92.87;101737.28;5008355;28;20037;-72
2023/07/13 10:21:21;;;;;;;10.48;2.45;;;;;;;22.74;92.68;101726.66;5009144;28;20481;-72
2023/07/13 10:23:55;;;;;;;6.10;2.10;;;;;;;22.43;92.25;101735.91;5008149;28;20029;-76
2023/07/13 10:26:26;;;;;;;4.82;2.30;;;;;;;22.19;93.42;101735.81;5008255;28;20034;-73
2023/07/13 10:28:55;;;;;;;5.43;2.38;;;;;;;22.37;94.22;101733.66;5006890;28;20014;-73
2023/07/13 10:31:21;;;;;;;7.32;2.35;;;;;;;22.49;93.50;101741.81;5008419;28;20121;-70
2023/07/13 10:33:46;;;;;;;8.68;2.70;;;;;;;22.67;93.92;101735.16;4988605;28;20165;-72
2023/07/13 10:36:20;;;;;;;9.05;2.88;;;;;;;22.46;91.29;101746.41;4989054;28;20037;-71
2023/07/13 10:38:46;;;;;;;6.47;2.20;;;;;;;22.26;90.92;101741.59;4988633;28;20369;-70
2023/07/13 10:41:15;;;;;;;7.13;2.20;;;;;;;22.12;91.93;101745.25;4988624;28;20034;-72
2023/07/13 10:43:46;;;;;;;6.57;2.25;;;;;;;22.36;92.04;101742.66;4988468;28;20037;-73
2023/07/13 10:46:14;;;;;;;7.55;2.40;;;;;;;22.86;90.86;101736.53;4987800;28;20472;-72
2023/07/13 10:48:42;;;;;;;7.67;2.40;;;;;;;23.08;89.34;101760.00;4987955;28;20038;-74
2023/07/13 10:51:10;;;;;;;5.30;2.42;;;;;;;23.44;88.69;101743.97;4992664;28;20412;-73
2023/07/13 10:53:37;;;;;;;3.78;2.50;;;;;;;23.37;89.77;101750.78;5003000;28;20029;-70
2023/07/13 10:56:08;;;;;;;8.63;2.65;;;;;;;23.54;88.33;101748.69;5011224;28;20041;-68
2023/07/13 10:58:38;;;;;;;7.72;2.70;;;;;;;23.69;89.24;101752.03;5011345;28;20105;-73
2023/07/13 11:01:16;;;;;;;11.73;2.75;;;;;;;23.65;87.74;101754.09;5011952;28;20026;-73
2023/07/13 11:04:14;;;;;;;8.43;2.40;;;;;;;23.53;87.57;101760.38;5012124;28;20026;-68
2023/07/13 11:06:42;;;;;;;6.25;2.63;;;;;;;23.51;87.04;101763.19;4978813;28;20441;-71
2023/07/13 11:09:40;;;;;;;5.75;2.22;;;;;;;23.73;85.21;101762.47;5012678;28;20105;-71
2023/07/13 11:12:27;;;;;;;7.55;2.75;;;;;;;23.67;83.98;101759.34;4989267;28;20050;-73
2023/07/13 11:14:57;;;;;;;8.02;2.00;;;;;;;23.19;84.64;101767.28;4993171;28;20035;-70